Time;durP1;ratioP1;P1;durP2;ratioP2;P2;SDS_P1;SDS_P2;PMS_P1;PMS_P2;Temp;Humidity;BMP_temperature;BMP_pressure;BME280_temperature;BME280_humidity;BME280_pressure;Samples;Min_cycle;Max_cycle;Signal;HPM_P1;HPM_P2
2023/09/19 00:01:00;;;;;;;6.10;4.40;;;;;;;;;;6286737;22;20055;-45
2023/09/19 00:03:28;;;;;;;5.60;4.35;;;;;;;;;;6286455;22;20173;-48
2023/09/19 00:05:55;;;;;;;5.28;4.15;;;;;;;;;;6286210;22;20061;-45
2023/09/19 00:08:22;;;;;;;7.35;3.72;;;;;;;;;;6285680;22;20007;-54
2023/09/19 00:10:48;;;;;;;5.95;4.20;;;;;;;;;;6284407;22;20087;-45
2023/09/19 00:13:15;;;;;;;5.10;3.33;;;;;;;;;;6286155;22;20003;-54
2023/09/19 00:15:43;;;;;;;4.47;3.75;;;;;;;;;;6285690;22;20004;-46
2023/09/19 00:18:09;;;;;;;7.70;3.58;;;;;;;;;;6283798;22;20011;-51
2023/09/19 00:20:38;;;;;;;4.93;4.10;;;;;;;;;;6286975;22;20011;-45
2023/09/19 00:23:05;;;;;;;6.82;3.88;;;;;;;;;;6259664;22;20010;-44
2023/09/19 00:25:32;;;;;;;4.35;3.90;;;;;;;;;;6286721;22;20042;-47
2023/09/19 00:27:59;;;;;;;4.38;3.97;;;;;;;;;;6287439;22;20000;-46
2023/09/19 00:30:25;;;;;;;4.63;3.88;;;;;;;;;;6287021;22;20063;-48
2023/09/19 00:32:54;;;;;;;6.30;4.05;;;;;;;;;;6288650;22;20188;-43
2023/09/19 00:35:27;;;;;;;7.32;4.40;;;;;;;;;;6288392;22;20008;-45
2023/09/19 00:37:54;;;;;;;5.78;4.60;;;;;;;;;;6287443;22;20299;-46
2023/09/19 00:40:21;;;;;;;5.82;4.45;;;;;;;;;;6289083;22;20008;-49
2023/09/19 00:42:49;;;;;;;7.18;4.63;;;;;;;;;;6287212;22;19988;-48
2023/09/19 00:45:17;;;;;;;5.68;4.30;;;;;;;;;;6286421;22;20007;-49
2023/09/19 00:47:50;;;;;;;5.65;4.50;;;;;;;;;;6286431;22;20195;-44
2023/09/19 00:50:21;;;;;;;4.90;4.35;;;;;;;;;;6286477;22;20061;-46
2023/09/19 00:52:49;;;;;;;4.85;3.47;;;;;;;;;;6286260;22;20054;-45
2023/09/19 00:55:20;;;;;;;5.13;4.15;;;;;;;;;;6286174;22;20003;-48
2023/09/19 00:57:49;;;;;;;4.15;3.75;;;;;;;;;;6286566;22;19999;-45
2023/09/19 01:00:18;;;;;;;4.38;3.97;;;;;;;;;;6287707;22;20014;-51
2023/09/19 01:02:46;;;;;;;5.50;4.20;;;;;;;;;;6287195;22;19995;-47
2023/09/19 01:05:13;;;;;;;6.43;4.28;;;;;;;;;;6288278;22;20046;-48
2023/09/19 01:07:44;;;;;;;6.60;4.20;;;;;;;;;;6288247;22;20045;-45
2023/09/19 01:10:12;;;;;;;10.55;4.22;;;;;;;;;;6288018;22;20051;-44
2023/09/19 01:12:40;;;;;;;5.13;4.63;;;;;;;;;;6287840;22;20023;-52
2023/09/19 01:15:39;;;;;;;20.20;5.15;;;;;;;;;;6288043;22;20098;-49
2023/09/19 01:18:22;;;;;;;12.23;5.05;;;;;;;;;;6238110;22;20055;-47
2023/09/19 01:21:01;;;;;;;13.07;5.25;;;;;;;;;;6288397;22;20007;-45
2023/09/19 01:23:53;;;;;;;9.15;4.82;;;;;;;;;;6288034;22;20327;-50
2023/09/19 01:26:31;;;;;;;9.15;5.05;;;;;;;;;;6281033;22;20012;-50
2023/09/19 01:29:29;;;;;;;7.45;4.93;;;;;;;;;;6285893;22;20042;-46
2023/09/19 01:32:01;;;;;;;7.53;5.07;;;;;;;;;;6131099;22;20016;-52
2023/09/19 01:34:28;;;;;;;9.80;5.63;;;;;;;;;;6287407;22;20015;-47
2023/09/19 01:36:55;;;;;;;6.97;5.15;;;;;;;;;;6288584;22;20348;-49
2023/09/19 01:39:21;;;;;;;8.85;6.15;;;;;;;;;;6287836;22;20191;-46
2023/09/19 01:41:50;;;;;;;9.43;5.65;;;;;;;;;;6288349;22;20330;-46
2023/09/19 01:44:26;;;;;;;68.80;11.23;;;;;;;;;;6288072;22;19996;-45
2023/09/19 01:46:54;;;;;;;25.67;7.68;;;;;;;;;;6286172;22;20004;-45
2023/09/19 01:49:46;;;;;;;13.02;6.18;;;;;;;;;;6288057;22;19999;-47
2023/09/19 01:52:19;;;;;;;14.10;6.13;;;;;;;;;;6288226;22;20007;-45
2023/09/19 01:55:07;;;;;;;8.10;5.53;;;;;;;;;;6284262;22;20011;-49
2023/09/19 01:57:37;;;;;;;8.98;5.80;;;;;;;;;;6287612;22;20015;-48
2023/09/19 02:00:11;;;;;;;11.85;5.85;;;;;;;;;;6287779;22;20003;-42
2023/09/19 02:02:39;;;;;;;7.45;5.22;;;;;;;;;;6287410;22;20046;-43
2023/09/19 02:05:06;;;;;;;6.43;5.70;;;;;;;;;;6285500;22;20000;-44
2023/09/19 02:07:35;;;;;;;10.48;6.20;;;;;;;;;;6287657;22;20014;-44
2023/09/19 02:10:05;;;;;;;7.00;5.38;;;;;;;;;;6286790;22;19996;-42
2023/09/19 02:12:32;;;;;;;8.65;5.97;;;;;;;;;;6287691;22;20030;-49
2023/09/19 02:14:59;;;;;;;8.00;5.38;;;;;;;;;;6287440;22;19992;-50
2023/09/19 02:17:27;;;;;;;13.60;6.13;;;;;;;;;;6287411;22;19999;-50
2023/09/19 02:19:54;;;;;;;8.50;5.72;;;;;;;;;;6287429;22;20051;-48
2023/09/19 02:22:24;;;;;;;10.68;6.05;;;;;;;;;;6287478;22;20259;-46
2023/09/19 02:24:53;;;;;;;7.05;5.60;;;;;;;;;;6287252;22;20267;-43
2023/09/19 02:27:20;;;;;;;9.77;7.38;;;;;;;;;;6287286;22;20015;-53
2023/09/19 02:29:47;;;;;;;8.38;4.82;;;;;;;;;;6286350;22;20051;-53
2023/09/19 02:32:14;;;;;;;6.78;4.80;;;;;;;;;;6287381;22;20284;-50
2023/09/19 02:34:41;;;;;;;6.97;4.75;;;;;;;;;;6286949;22;20004;-51
2023/09/19 02:37:13;;;;;;;9.57;5.20;;;;;;;;;;6287579;22;20081;-42
2023/09/19 02:39:39;;;;;;;4.78;4.38;;;;;;;;;;6287033;22;20077;-42
2023/09/19 02:42:06;;;;;;;8.60;4.25;;;;;;;;;;6286716;22;20169;-50
2023/09/19 02:44:33;;;;;;;10.27;4.50;;;;;;;;;;6286654;22;20039;-48
2023/09/19 02:47:00;;;;;;;5.90;4.20;;;;;;;;;;6287212;22;20004;-46
2023/09/19 02:49:27;;;;;;;5.18;3.88;;;;;;;;;;6287100;22;20002;-43
2023/09/19 02:51:53;;;;;;;5.50;4.40;;;;;;;;;;6287690;22;20002;-49
2023/09/19 02:54:21;;;;;;;7.13;5.85;;;;;;;;;;6286831;22;20011;-44
2023/09/19 02:56:48;;;;;;;5.25;3.90;;;;;;;;;;6287603;22;20007;-43
2023/09/19 02:59:15;;;;;;;5.93;3.67;;;;;;;;;;6286814;22;20037;-42
2023/09/19 03:01:48;;;;;;;5.38;3.78;;;;;;;;;;6287227;22;20010;-42
2023/09/19 03:04:19;;;;;;;5.47;3.70;;;;;;;;;;6286877;22;19996;-45
2023/09/19 03:06:46;;;;;;;7.90;3.92;;;;;;;;;;6287355;22;20004;-43
2023/09/19 03:09:13;;;;;;;4.38;3.40;;;;;;;;;;6284315;22;20015;-44
2023/09/19 03:11:42;;;;;;;5.97;3.47;;;;;;;;;;6286619;22;20031;-49
2023/09/19 03:14:10;;;;;;;7.95;3.65;;;;;;;;;;6284896;22;20015;-46
2023/09/19 03:16:37;;;;;;;4.40;3.22;;;;;;;;;;6287432;22;20184;-47
2023/09/19 03:19:05;;;;;;;5.07;3.30;;;;;;;;;;6286114;22;19992;-49
2023/09/19 03:21:31;;;;;;;5.90;3.75;;;;;;;;;;6287175;22;20046;-42
2023/09/19 03:23:58;;;;;;;5.15;2.95;;;;;;;;;;6286578;22;20019;-46
2023/09/19 03:26:26;;;;;;;5.68;3.33;;;;;;;;;;6285390;22;19991;-44
2023/09/19 03:28:53;;;;;;;4.20;3.53;;;;;;;;;;6284453;22;20042;-47
2023/09/19 03:31:19;;;;;;;3.70;3.20;;;;;;;;;;6287013;22;20029;-46
2023/09/19 03:33:46;;;;;;;5.13;3.40;;;;;;;;;;6286854;22;19994;-43
2023/09/19 03:36:13;;;;;;;5.28;3.40;;;;;;;;;;6286818;22;20011;-42
2023/09/19 03:38:40;;;;;;;5.60;3.45;;;;;;;;;;6286768;22;20339;-46
2023/09/19 03:41:06;;;;;;;5.00;3.10;;;;;;;;;;6287053;22;20272;-52
2023/09/19 03:43:33;;;;;;;7.18;3.20;;;;;;;;;;6285969;22;20004;-45
2023/09/19 03:46:07;;;;;;;3.60;2.83;;;;;;;;;;6286798;22;20003;-47
2023/09/19 03:48:34;;;;;;;4.28;3.33;;;;;;;;;;6286759;22;20015;-48
2023/09/19 03:51:00;;;;;;;7.72;3.00;;;;;;;;;;6286724;22;20330;-50
2023/09/19 03:53:27;;;;;;;5.93;3.50;;;;;;;;;;6288199;22;19998;-47
2023/09/19 03:55:54;;;;;;;3.40;3.10;;;;;;;;;;6288942;22;20014;-46
2023/09/19 03:58:21;;;;;;;5.95;3.35;;;;;;;;;;6288686;22;20000;-43
2023/09/19 04:00:50;;;;;;;4.00;2.78;;;;;;;;;;6288866;22;20000;-43
2023/09/19 04:03:20;;;;;;;4.57;3.28;;;;;;;;;;6288551;22;20211;-43
2023/09/19 04:05:47;;;;;;;4.47;3.40;;;;;;;;;;6288760;22;20000;-43
2023/09/19 04:08:14;;;;;;;6.57;3.25;;;;;;;;;;6288715;22;20065;-45
2023/09/19 04:10:45;;;;;;;10.75;3.67;;;;;;;;;;6288640;22;19992;-51
2023/09/19 04:13:12;;;;;;;4.18;3.20;;;;;;;;;;6288372;22;20319;-45
2023/09/19 04:15:40;;;;;;;6.22;3.38;;;;;;;;;;6288800;22;20002;-46
2023/09/19 04:18:06;;;;;;;5.45;3.50;;;;;;;;;;6288450;22;20314;-48
2023/09/19 04:20:33;;;;;;;6.53;4.10;;;;;;;;;;6288479;22;20354;-42
2023/09/19 04:23:00;;;;;;;3.83;3.30;;;;;;;;;;6288310;22;20003;-44
2023/09/19 04:25:27;;;;;;;4.25;3.40;;;;;;;;;;6288681;22;19995;-49
2023/09/19 04:27:54;;;;;;;4.07;3.30;;;;;;;;;;6288055;22;20044;-49
2023/09/19 04:30:21;;;;;;;4.30;3.28;;;;;;;;;;6287827;22;20012;-46
2023/09/19 04:32:50;;;;;;;5.72;3.42;;;;;;;;;;6288401;22;20043;-45
2023/09/19 04:35:17;;;;;;;6.53;3.50;;;;;;;;;;6288309;22;20004;-45
2023/09/19 04:37:43;;;;;;;4.07;3.70;;;;;;;;;;6288609;22;20045;-48
2023/09/19 04:40:12;;;;;;;4.13;3.72;;;;;;;;;;6288424;22;20214;-47
2023/09/19 04:42:40;;;;;;;5.03;3.63;;;;;;;;;;6286075;22;20292;-49
2023/09/19 04:45:07;;;;;;;5.10;3.40;;;;;;;;;;6288092;22;20046;-43
2023/09/19 04:47:34;;;;;;;5.75;3.45;;;;;;;;;;6288221;22;20015;-42
2023/09/19 04:50:00;;;;;;;3.47;3.17;;;;;;;;;;6288136;22;20018;-46
2023/09/19 04:52:27;;;;;;;4.32;3.80;;;;;;;;;;6288107;22;19996;-42
2023/09/19 04:54:53;;;;;;;4.80;3.45;;;;;;;;;;6288266;22;19992;-44
2023/09/19 04:57:20;;;;;;;4.55;3.60;;;;;;;;;;6288170;22;19999;-44
2023/09/19 04:59:47;;;;;;;4.05;3.60;;;;;;;;;;6287983;22;19991;-45
2023/09/19 05:02:13;;;;;;;4.63;3.50;;;;;;;;;;6288507;22;20284;-50
2023/09/19 05:04:40;;;;;;;4.53;3.67;;;;;;;;;;6286564;22;19996;-50
2023/09/19 05:07:07;;;;;;;7.05;3.63;;;;;;;;;;6286450;22;20022;-48
2023/09/19 05:09:34;;;;;;;6.00;3.88;;;;;;;;;;6286852;22;19992;-43
2023/09/19 05:12:01;;;;;;;5.10;3.63;;;;;;;;;;6287803;22;20008;-42
2023/09/19 05:14:27;;;;;;;6.47;3.78;;;;;;;;;;6287148;22;19991;-44
2023/09/19 05:16:54;;;;;;;5.72;3.92;;;;;;;;;;6286939;22;20280;-47
2023/09/19 05:19:21;;;;;;;7.60;3.80;;;;;;;;;;6286261;22;20376;-44
2023/09/19 05:21:48;;;;;;;5.15;3.67;;;;;;;;;;6287795;22;20000;-51
2023/09/19 05:24:16;;;;;;;5.88;3.60;;;;;;;;;;6288075;22;20207;-42
2023/09/19 05:26:44;;;;;;;4.97;3.65;;;;;;;;;;6287380;22;20059;-43
2023/09/19 05:29:11;;;;;;;4.13;3.75;;;;;;;;;;6286117;22;20043;-48
2023/09/19 05:31:40;;;;;;;4.20;3.67;;;;;;;;;;6286785;22;19999;-43
2023/09/19 05:34:07;;;;;;;4.25;3.63;;;;;;;;;;6286964;22;20047;-44
2023/09/19 05:36:34;;;;;;;4.63;3.58;;;;;;;;;;6286909;22;20051;-48
2023/09/19 05:39:01;;;;;;;5.97;4.05;;;;;;;;;;6286916;22;20184;-47
2023/09/19 05:41:28;;;;;;;8.07;4.00;;;;;;;;;;6286756;22;20003;-50
2023/09/19 05:43:54;;;;;;;9.07;3.58;;;;;;;;;;6285780;22;19988;-44
2023/09/19 05:46:21;;;;;;;7.47;3.72;;;;;;;;;;6287499;22;20042;-47
2023/09/19 05:48:49;;;;;;;3.95;3.30;;;;;;;;;;6286813;22;19996;-44
2023/09/19 05:51:17;;;;;;;5.68;3.72;;;;;;;;;;6288056;22;19996;-47
2023/09/19 05:53:44;;;;;;;6.50;3.65;;;;;;;;;;6287565;22;19996;-44
2023/09/19 05:56:11;;;;;;;4.50;3.72;;;;;;;;;;6287499;22;20337;-45
2023/09/19 05:58:38;;;;;;;5.15;3.47;;;;;;;;;;6287489;22;20169;-47
2023/09/19 06:01:07;;;;;;;5.20;3.97;;;;;;;;;;6285730;22;20015;-48
2023/09/19 06:03:35;;;;;;;5.35;3.70;;;;;;;;;;6286517;22;20010;-46
2023/09/19 06:06:02;;;;;;;8.60;3.90;;;;;;;;;;6287638;22;20180;-48
2023/09/19 06:08:31;;;;;;;6.75;3.85;;;;;;;;;;6286149;22;20000;-53
2023/09/19 06:10:57;;;;;;;4.28;3.55;;;;;;;;;;6287081;22;20211;-45
2023/09/19 06:13:26;;;;;;;5.70;3.67;;;;;;;;;;6285280;22;20013;-49
2023/09/19 06:15:53;;;;;;;5.45;3.80;;;;;;;;;;6285514;22;20004;-48
2023/09/19 06:18:20;;;;;;;4.32;3.83;;;;;;;;;;6285822;22;20027;-50
2023/09/19 06:20:48;;;;;;;6.38;3.78;;;;;;;;;;6287489;22;20015;-47
2023/09/19 06:23:15;;;;;;;4.13;3.72;;;;;;;;;;6285417;22;20053;-45
2023/09/19 06:25:43;;;;;;;5.30;3.60;;;;;;;;;;6285681;22;20004;-47
2023/09/19 06:28:13;;;;;;;3.70;3.40;;;;;;;;;;6286621;22;19994;-46
2023/09/19 06:30:40;;;;;;;3.80;3.50;;;;;;;;;;6286586;22;20165;-47
2023/09/19 06:33:07;;;;;;;4.90;3.40;;;;;;;;;;6286856;22;20000;-49
2023/09/19 06:35:34;;;;;;;5.57;3.78;;;;;;;;;;6285900;22;20010;-43
2023/09/19 06:38:05;;;;;;;5.05;3.97;;;;;;;;;;6286714;22;20057;-42
2023/09/19 06:40:32;;;;;;;4.68;3.88;;;;;;;;;;6286241;22;20296;-47
2023/09/19 06:43:02;;;;;;;5.30;4.38;;;;;;;;;;6286705;22;19991;-45
2023/09/19 06:45:29;;;;;;;6.82;4.03;;;;;;;;;;6286794;22;20015;-48
2023/09/19 06:47:57;;;;;;;5.97;3.78;;;;;;;;;;6286187;22;20000;-44
2023/09/19 06:50:25;;;;;;;6.03;4.25;;;;;;;;;;6286390;22;20276;-46
2023/09/19 06:52:57;;;;;;;5.28;3.95;;;;;;;;;;6285733;22;20191;-45
2023/09/19 06:55:25;;;;;;;4.30;3.75;;;;;;;;;;6286221;22;20258;-49
2023/09/19 06:57:54;;;;;;;7.72;4.13;;;;;;;;;;6287059;22;20041;-45
2023/09/19 07:00:24;;;;;;;5.65;3.60;;;;;;;;;;6286128;22;20168;-45
2023/09/19 07:03:00;;;;;;;9.02;4.10;;;;;;;;;;6286383;22;20024;-52
2023/09/19 07:05:36;;;;;;;5.65;3.67;;;;;;;;;;6286224;22;20160;-43
2023/09/19 07:08:02;;;;;;;4.82;3.95;;;;;;;;;;6287011;22;20000;-46
2023/09/19 07:10:30;;;;;;;6.15;3.65;;;;;;;;;;6287128;22;20047;-46
2023/09/19 07:13:00;;;;;;;7.07;4.10;;;;;;;;;;6285025;22;20373;-47
2023/09/19 07:15:27;;;;;;;6.85;3.78;;;;;;;;;;6286150;22;20011;-45
2023/09/19 07:17:55;;;;;;;5.97;3.85;;;;;;;;;;6286487;22;19995;-44
2023/09/19 07:20:25;;;;;;;6.88;4.35;;;;;;;;;;6285789;22;20031;-59
2023/09/19 07:22:51;;;;;;;6.50;3.80;;;;;;;;;;6286633;22;20192;-47
2023/09/19 07:25:18;;;;;;;5.47;3.95;;;;;;;;;;6286521;22;20016;-43
2023/09/19 07:27:45;;;;;;;5.25;3.97;;;;;;;;;;6289130;22;20000;-45
2023/09/19 07:30:12;;;;;;;5.10;4.35;;;;;;;;;;6290058;22;20012;-45
2023/09/19 07:32:40;;;;;;;6.00;4.32;;;;;;;;;;6290531;22;19999;-51
2023/09/19 07:35:07;;;;;;;7.60;4.43;;;;;;;;;;6289608;22;20069;-53
2023/09/19 07:37:34;;;;;;;5.75;4.55;;;;;;;;;;6289969;22;20004;-46
2023/09/19 07:40:01;;;;;;;5.82;3.97;;;;;;;;;;6290254;22;19988;-44
2023/09/19 07:42:28;;;;;;;7.05;4.00;;;;;;;;;;6290146;22;20226;-42
2023/09/19 07:44:54;;;;;;;5.95;4.18;;;;;;;;;;6290397;22;20333;-42
2023/09/19 07:47:22;;;;;;;4.75;4.35;;;;;;;;;;6290092;22;20288;-49
2023/09/19 07:49:48;;;;;;;7.47;4.57;;;;;;;;;;6289293;22;20045;-42
2023/09/19 07:52:15;;;;;;;7.30;4.60;;;;;;;;;;6290770;22;20016;-44
2023/09/19 07:54:44;;;;;;;6.43;4.78;;;;;;;;;;6289260;22;19992;-48
2023/09/19 07:57:11;;;;;;;6.15;4.70;;;;;;;;;;6289191;22;20078;-53
2023/09/19 07:59:41;;;;;;;6.63;4.63;;;;;;;;;;6289051;22;20020;-46
2023/09/19 08:02:15;;;;;;;8.13;4.85;;;;;;;;;;6290153;22;20279;-53
2023/09/19 08:04:48;;;;;;;6.38;4.60;;;;;;;;;;6288051;22;20008;-45
2023/09/19 08:07:16;;;;;;;5.05;4.55;;;;;;;;;;6289560;22;20061;-48
2023/09/19 08:09:46;;;;;;;6.38;4.90;;;;;;;;;;6290229;22;20310;-47
2023/09/19 08:12:12;;;;;;;5.38;4.88;;;;;;;;;;6290027;22;20000;-46
2023/09/19 08:14:41;;;;;;;8.43;4.75;;;;;;;;;;6289242;22;20004;-46
2023/09/19 08:17:08;;;;;;;5.22;4.68;;;;;;;;;;6290257;22;20062;-43
2023/09/19 08:19:36;;;;;;;9.85;5.32;;;;;;;;;;6289924;22;19992;-52
2023/09/19 08:22:02;;;;;;;6.63;5.03;;;;;;;;;;6290621;22;20027;-49
2023/09/19 08:24:30;;;;;;;6.85;4.35;;;;;;;;;;6290114;22;20412;-45
2023/09/19 08:26:57;;;;;;;6.45;4.72;;;;;;;;;;6289223;22;19991;-52
2023/09/19 08:29:27;;;;;;;4.78;4.28;;;;;;;;;;6289635;22;20004;-48
2023/09/19 08:31:58;;;;;;;5.63;4.38;;;;;;;;;;6289037;22;20026;-56
2023/09/19 08:34:25;;;;;;;6.55;4.57;;;;;;;;;;6289534;22;20100;-53
2023/09/19 08:36:58;;;;;;;9.73;4.72;;;;;;;;;;6289622;22;20004;-46
2023/09/19 08:39:25;;;;;;;5.93;4.32;;;;;;;;;;6285853;22;19992;-51
2023/09/19 08:42:01;;;;;;;7.80;5.10;;;;;;;;;;6285152;22;20280;-44
2023/09/19 08:44:30;;;;;;;8.88;4.25;;;;;;;;;;6285081;22;19996;-44
2023/09/19 08:47:03;;;;;;;5.93;4.50;;;;;;;;;;6285971;22;20000;-46
2023/09/19 08:49:37;;;;;;;8.55;4.97;;;;;;;;;;6284493;22;19995;-51
2023/09/19 08:52:24;;;;;;;7.25;4.82;;;;;;;;;;6285662;22;20348;-54
2023/09/19 08:54:53;;;;;;;8.60;4.63;;;;;;;;;;6287348;22;19992;-50
2023/09/19 08:57:22;;;;;;;5.63;4.85;;;;;;;;;;6287154;22;20054;-44
2023/09/19 08:59:54;;;;;;;5.43;4.55;;;;;;;;;;6286868;22;19995;-48
2023/09/19 09:02:21;;;;;;;7.18;4.93;;;;;;;;;;6287508;22;19999;-48
2023/09/19 09:04:49;;;;;;;5.80;4.18;;;;;;;;;;6286964;22;20007;-51
2023/09/19 09:07:18;;;;;;;6.30;4.25;;;;;;;;;;6287720;22;19992;-50
2023/09/19 09:09:45;;;;;;;6.70;4.72;;;;;;;;;;6287357;22;20043;-49
2023/09/19 09:12:15;;;;;;;5.03;4.47;;;;;;;;;;6286525;22;20018;-46
2023/09/19 09:14:48;;;;;;;6.32;4.40;;;;;;;;;;6286470;22;20184;-52
2023/09/19 09:17:16;;;;;;;9.07;5.20;;;;;;;;;;6287615;22;20007;-47
2023/09/19 09:19:43;;;;;;;7.65;4.70;;;;;;;;;;6286834;22;19999;-55
2023/09/19 09:22:10;;;;;;;16.35;5.00;;;;;;;;;;6287425;22;19999;-56
2023/09/19 09:24:39;;;;;;;7.43;4.80;;;;;;;;;;6287817;22;19999;-55
2023/09/19 09:27:10;;;;;;;5.85;4.75;;;;;;;;;;6288607;22;19999;-50
2023/09/19 09:29:43;;;;;;;8.38;5.10;;;;;;;;;;6284801;22;20268;-50
2023/09/19 09:32:24;;;;;;;7.35;4.88;;;;;;;;;;6287990;22;20011;-54
2023/09/19 09:34:54;;;;;;;6.20;5.38;;;;;;;;;;6287523;22;20230;-48
2023/09/19 09:37:22;;;;;;;7.70;5.68;;;;;;;;;;6284727;22;20022;-48
2023/09/19 09:39:51;;;;;;;7.53;5.50;;;;;;;;;;6287948;22;20006;-47
2023/09/19 09:42:35;;;;;;;6.20;5.60;;;;;;;;;;6285039;22;20000;-50
2023/09/19 09:48:14;;;;;;;7.18;6.00;;;;;;;;;;6287011;22;20072;-44
2023/09/19 09:50:56;;;;;;;6.13;5.47;;;;;;;;;;6287386;22;20027;-47
2023/09/19 09:53:31;;;;;;;;;;;;;;;;;;6286863;22;20045;-45
2023/09/19 09:56:09;;;;;;;9.05;5.97;;;;;;;;;;6286264;22;19903;-44
2023/09/19 09:58:50;;;;;;;7.90;6.05;;;;;;;;;;6286846;22;19999;-46
2023/09/19 10:01:17;;;;;;;6.50;5.57;;;;;;;;;;6287433;22;20060;-49
2023/09/19 10:03:47;;;;;;;7.55;5.85;;;;;;;;;;6287393;22;20292;-54
2023/09/19 10:09:11;;;;;;;8.15;6.28;;;;;;;;;;6297212;22;20011;-52
2023/09/19 10:11:56;;;;;;;7.97;7.18;;;;;;;;;;6288062;22;20037;-48
2023/09/19 10:14:26;;;;;;;8.05;6.32;;;;;;;;;;6285974;22;20067;-52
2023/09/19 10:17:00;;;;;;;7.85;5.80;;;;;;;;;;6287601;22;20000;-48
2023/09/19 10:19:57;;;;;;;6.78;5.85;;;;;;;;;;6287247;22;20046;-51
2023/09/19 10:22:26;;;;;;;7.22;5.95;;;;;;;;;;6287407;22;20004;-44
2023/09/19 10:24:54;;;;;;;7.25;5.72;;;;;;;;;;6287418;22;20204;-48
2023/09/19 10:27:21;;;;;;;7.82;5.90;;;;;;;;;;6287479;22;20089;-45
2023/09/19 10:29:53;;;;;;;7.40;5.57;;;;;;;;;;6287010;22;20003;-48
2023/09/19 10:32:23;;;;;;;10.60;5.95;;;;;;;;;;6287201;22;20008;-46
2023/09/19 10:34:50;;;;;;;10.10;5.75;;;;;;;;;;6286910;22;19999;-50
2023/09/19 10:37:17;;;;;;;8.65;6.00;;;;;;;;;;6287578;22;20179;-51
2023/09/19 10:39:47;;;;;;;12.95;5.93;;;;;;;;;;6287001;22;20004;-47
2023/09/19 10:42:17;;;;;;;9.32;5.70;;;;;;;;;;6287322;22;20168;-44
2023/09/19 10:44:46;;;;;;;9.95;5.75;;;;;;;;;;6286911;22;20222;-48
2023/09/19 10:47:13;;;;;;;10.38;5.85;;;;;;;;;;6287377;22;20007;-45
2023/09/19 10:49:49;;;;;;;11.63;6.70;;;;;;;;;;6287148;22;20019;-48
2023/09/19 10:52:19;;;;;;;9.13;6.45;;;;;;;;;;6287787;22;20014;-45
2023/09/19 10:54:52;;;;;;;13.75;6.53;;;;;;;;;;6287128;22;20024;-51
2023/09/19 10:57:27;;;;;;;25.38;7.70;;;;;;;;;;6286992;22;20008;-53
2023/09/19 11:00:28;;;;;;;16.67;7.82;;;;;;;;;;6286893;22;20003;-48
2023/09/19 11:03:12;;;;;;;16.45;8.85;;;;;;;;;;6285575;22;20034;-50
2023/09/19 11:05:40;;;;;;;12.27;6.93;;;;;;;;;;6287209;22;20018;-47
2023/09/19 11:08:11;;;;;;;21.48;16.48;;;;;;;;;;6287105;22;20051;-45
2023/09/19 11:10:51;;;;;;;19.35;16.40;;;;;;;;;;6287304;22;20307;-47
2023/09/19 11:13:28;;;;;;;20.83;11.43;;;;;;;;;;6287171;22;20011;-48
2023/09/19 11:15:57;;;;;;;15.40;12.15;;;;;;;;;;6287383;22;20027;-49
2023/09/19 11:18:43;;;;;;;14.48;11.52;;;;;;;;;;6287138;22;20197;-53
2023/09/19 11:21:33;;;;;;;12.80;10.70;;;;;;;;;;6287810;22;20157;-49
2023/09/19 11:24:24;;;;;;;8.60;7.38;;;;;;;;;;6287435;22;20007;-52
2023/09/19 11:26:52;;;;;;;14.75;7.53;;;;;;;;;;6287274;22;19996;-45
2023/09/19 11:29:29;;;;;;;9.70;7.03;;;;;;;;;;6287001;22;20000;-44
2023/09/19 11:31:56;;;;;;;10.07;7.05;;;;;;;;;;6287466;22;20008;-46
2023/09/19 11:34:41;;;;;;;7.93;7.00;;;;;;;;;;6286983;22;20296;-45
2023/09/19 11:37:13;;;;;;;12.50;6.50;;;;;;;;;;6287553;22;20000;-49
2023/09/19 11:39:40;;;;;;;;;;;;;;;;;;6287653;22;20051;-44
2023/09/19 11:42:27;;;;;;;7.68;6.10;;;;;;;;;;6286826;22;19903;-56
2023/09/19 11:44:55;;;;;;;11.00;6.90;;;;;;;;;;6261951;22;20065;-53
2023/09/19 11:47:24;;;;;;;11.52;8.02;;;;;;;;;;6287104;22;20043;-54
2023/09/19 11:49:53;;;;;;;12.00;7.97;;;;;;;;;;6286534;22;20284;-50
2023/09/19 11:52:24;;;;;;;7.25;6.15;;;;;;;;;;6286980;22;20007;-51
2023/09/19 11:55:02;;;;;;;9.88;6.47;;;;;;;;;;6286795;22;20047;-49
2023/09/19 11:57:29;;;;;;;8.00;6.97;;;;;;;;;;6286884;22;20049;-51
2023/09/19 11:59:58;;;;;;;8.38;6.68;;;;;;;;;;6285594;22;19998;-50
2023/09/19 12:02:48;;;;;;;7.95;6.15;;;;;;;;;;6284910;22;20010;-47
2023/09/19 12:05:16;;;;;;;10.07;6.50;;;;;;;;;;6285292;22;20003;-51
2023/09/19 12:07:47;;;;;;;7.32;6.13;;;;;;;;;;6285133;22;19995;-51
2023/09/19 12:10:17;;;;;;;8.80;6.18;;;;;;;;;;6285072;22;20022;-46
2023/09/19 12:12:53;;;;;;;11.60;6.00;;;;;;;;;;6284628;22;20004;-48
2023/09/19 12:15:28;;;;;;;8.70;5.90;;;;;;;;;;6286537;22;20027;-52
2023/09/19 12:17:55;;;;;;;8.30;5.97;;;;;;;;;;6286711;22;20008;-50
2023/09/19 12:20:21;;;;;;;8.70;5.75;;;;;;;;;;6286554;22;20010;-48
2023/09/19 12:22:49;;;;;;;10.30;5.88;;;;;;;;;;6286530;22;20192;-48
2023/09/19 12:25:21;;;;;;;8.23;5.90;;;;;;;;;;6286957;22;20011;-51
2023/09/19 12:27:52;;;;;;;7.78;5.10;;;;;;;;;;6288517;22;19996;-51
2023/09/19 12:30:20;;;;;;;7.80;5.63;;;;;;;;;;6288422;22;20063;-52
2023/09/19 12:32:49;;;;;;;7.95;5.05;;;;;;;;;;6288585;22;20055;-50
2023/09/19 12:35:30;;;;;;;7.43;5.13;;;;;;;;;;6288746;22;20003;-46
2023/09/19 12:37:57;;;;;;;7.45;4.93;;;;;;;;;;6288636;22;20004;-47
2023/09/19 12:40:27;;;;;;;8.63;5.40;;;;;;;;;;6288539;22;20004;-46
2023/09/19 12:43:04;;;;;;;8.65;5.10;;;;;;;;;;6288392;22;19991;-44
2023/09/19 12:45:31;;;;;;;7.63;5.50;;;;;;;;;;6288663;22;20055;-46
2023/09/19 12:48:16;;;;;;;8.13;5.15;;;;;;;;;;6288823;22;20002;-53
2023/09/19 12:51:05;;;;;;;8.10;5.20;;;;;;;;;;6288731;22;20272;-44
2023/09/19 12:53:39;;;;;;;6.78;5.10;;;;;;;;;;6288482;22;20022;-47
2023/09/19 12:56:06;;;;;;;10.05;4.95;;;;;;;;;;6288588;22;20035;-49
2023/09/19 12:58:34;;;;;;;7.20;5.00;;;;;;;;;;6288637;22;20027;-44
2023/09/19 13:01:05;;;;;;;6.78;5.45;;;;;;;;;;6288667;22;19995;-49
2023/09/19 13:03:34;;;;;;;9.10;5.68;;;;;;;;;;6288167;22;20003;-50
2023/09/19 13:06:03;;;;;;;7.43;5.22;;;;;;;;;;6288764;22;20003;-47
2023/09/19 13:08:38;;;;;;;6.68;5.20;;;;;;;;;;6288366;22;20007;-50
2023/09/19 13:11:14;;;;;;;7.65;5.60;;;;;;;;;;6288140;22;19992;-45
2023/09/19 13:13:43;;;;;;;9.32;6.15;;;;;;;;;;6288251;22;19999;-47
2023/09/19 13:16:14;;;;;;;8.30;6.10;;;;;;;;;;6288257;22;20004;-50
2023/09/19 13:18:53;;;;;;;16.10;5.60;;;;;;;;;;6287607;22;20000;-47
2023/09/19 13:21:37;;;;;;;7.30;6.00;;;;;;;;;;6288315;22;19996;-47
2023/09/19 13:24:30;;;;;;;9.50;6.05;;;;;;;;;;6287826;22;20185;-46
2023/09/19 13:26:57;;;;;;;8.35;6.55;;;;;;;;;;6288705;22;20014;-48
2023/09/19 13:29:24;;;;;;;8.98;6.20;;;;;;;;;;6288047;22;20000;-48
2023/09/19 13:31:54;;;;;;;7.88;5.85;;;;;;;;;;6288482;22;20014;-47
2023/09/19 13:34:21;;;;;;;7.63;6.00;;;;;;;;;;6288008;22;20066;-45
2023/09/19 13:36:48;;;;;;;12.88;5.80;;;;;;;;;;6288459;22;20207;-49
2023/09/19 13:39:17;;;;;;;5.88;5.28;;;;;;;;;;6287776;22;19996;-55
2023/09/19 13:41:50;;;;;;;12.43;5.65;;;;;;;;;;6287706;22;20034;-45
2023/09/19 13:44:17;;;;;;;7.13;5.53;;;;;;;;;;6287932;22;20303;-49
2023/09/19 13:46:45;;;;;;;5.97;5.38;;;;;;;;;;6288169;22;20331;-43
2023/09/19 13:49:12;;;;;;;11.65;5.95;;;;;;;;;;6287757;22;20057;-47
2023/09/19 13:51:43;;;;;;;11.98;5.70;;;;;;;;;;6288269;22;20022;-52
2023/09/19 13:54:11;;;;;;;12.85;6.22;;;;;;;;;;6287690;22;20223;-44
2023/09/19 13:56:38;;;;;;;9.15;6.10;;;;;;;;;;6287324;22;20034;-43
2023/09/19 13:59:05;;;;;;;14.65;7.03;;;;;;;;;;6286134;22;20264;-44
2023/09/19 14:01:32;;;;;;;12.15;6.15;;;;;;;;;;6259886;22;20064;-44
2023/09/19 14:03:58;;;;;;;12.88;6.25;;;;;;;;;;6287164;22;20192;-46
2023/09/19 14:06:25;;;;;;;7.18;5.78;;;;;;;;;;6288012;22;20015;-44
2023/09/19 14:08:52;;;;;;;31.10;13.20;;;;;;;;;;6287545;22;19988;-51
2023/09/19 14:11:20;;;;;;;15.27;7.65;;;;;;;;;;6287014;22;19992;-46
2023/09/19 14:13:48;;;;;;;17.27;8.18;;;;;;;;;;6261078;22;20000;-47
2023/09/19 14:16:17;;;;;;;21.98;9.20;;;;;;;;;;6287584;22;20007;-46
2023/09/19 14:18:45;;;;;;;19.27;8.60;;;;;;;;;;6287290;22;20003;-49
2023/09/19 14:21:12;;;;;;;14.80;8.88;;;;;;;;;;6287076;22;20015;-45
2023/09/19 14:23:39;;;;;;;22.30;8.40;;;;;;;;;;6287583;22;19991;-46
2023/09/19 14:26:07;;;;;;;15.73;7.90;;;;;;;;;;6287195;22;20259;-54
2023/09/19 14:28:34;;;;;;;12.27;7.63;;;;;;;;;;6287579;22;20011;-52
2023/09/19 14:31:11;;;;;;;16.55;7.43;;;;;;;;;;6287128;22;20347;-54
2023/09/19 14:33:39;;;;;;;15.82;7.28;;;;;;;;;;6285400;22;20029;-52
2023/09/19 14:36:08;;;;;;;12.02;7.22;;;;;;;;;;6285315;22;20004;-48
2023/09/19 14:38:35;;;;;;;14.93;7.88;;;;;;;;;;6285362;22;20302;-44
2023/09/19 14:41:02;;;;;;;13.73;7.32;;;;;;;;;;6285668;22;20059;-45
2023/09/19 14:43:30;;;;;;;10.02;7.00;;;;;;;;;;6285229;22;20188;-52
2023/09/19 14:45:57;;;;;;;12.20;7.32;;;;;;;;;;6285532;22;19991;-47
2023/09/19 14:48:25;;;;;;;24.42;7.93;;;;;;;;;;6287773;22;19999;-48
2023/09/19 14:50:53;;;;;;;20.45;8.32;;;;;;;;;;6287827;22;20006;-45
2023/09/19 14:53:20;;;;;;;16.70;7.05;;;;;;;;;;6287322;22;19996;-46
2023/09/19 14:55:47;;;;;;;18.10;7.22;;;;;;;;;;6287578;22;20011;-45
2023/09/19 14:58:14;;;;;;;14.70;7.65;;;;;;;;;;6287298;22;20230;-50
2023/09/19 15:00:41;;;;;;;20.67;8.10;;;;;;;;;;6287382;22;20022;-48
2023/09/19 15:03:08;;;;;;;14.43;6.85;;;;;;;;;;6287610;22;20003;-49